Time;durP1;ratioP1;P1;durP2;ratioP2;P2;SDS_P1;SDS_P2;PMS_P1;PMS_P2;Temp;Humidity;BMP_temperature;BMP_pressure;BME280_temperature;BME280_humidity;BME280_pressure;Samples;Min_cycle;Max_cycle;Signal;HPM_P1;HPM_P2
2021/06/12 00:00:09;;;;;;;9.70;6.13;;;;;;;17.39;69.80;98870.59;340542;105;2887974;-73
2021/06/12 00:01:22;;;;;;;8.41;5.36;;;;;;;17.58;69.33;98872.53;326011;106;2360054;-73
2021/06/12 00:02:27;;;;;;;9.29;5.94;;;;;;;17.53;69.18;98867.05;345441;109;1961075;-73
2021/06/12 00:03:36;;;;;;;10.99;6.07;;;;;;;17.62;69.10;98875.53;361351;109;1963824;-74
2021/06/12 00:04:47;;;;;;;8.85;6.43;;;;;;;17.78;68.63;98871.73;334964;106;2891003;-75
2021/06/12 00:05:52;;;;;;;9.03;6.44;;;;;;;17.67;68.61;98871.98;333314;109;1979011;-73
2021/06/12 00:07:04;;;;;;;10.80;7.42;;;;;;;17.77;68.52;98864.62;392941;104;1980016;-73
2021/06/12 00:08:10;;;;;;;10.32;6.78;;;;;;;17.65;68.47;98864.08;376544;106;1962068;-73
2021/06/12 00:09:16;;;;;;;9.16;6.59;;;;;;;17.62;68.41;98870.06;376144;106;1962038;-74
2021/06/12 00:10:35;;;;;;;9.57;5.68;;;;;;;17.68;68.49;98858.08;348220;104;2849944;-73
2021/06/12 00:11:41;;;;;;;10.41;6.82;;;;;;;17.54;68.52;98859.67;378871;105;1962032;-74
2021/06/12 00:12:47;;;;;;;9.22;5.99;;;;;;;17.48;68.63;98855.31;376559;107;1962083;-72
2021/06/12 00:14:00;;;;;;;8.78;5.86;;;;;;;17.55;68.76;98853.96;386897;104;1984887;-74
2021/06/12 00:15:08;;;;;;;19.46;6.04;;;;;;;17.43;68.75;98860.77;381514;105;1960867;-73
2021/06/12 00:16:20;;;;;;;11.18;6.49;;;;;;;17.50;68.93;98862.14;359730;109;1985581;-73
2021/06/12 00:17:25;;;;;;;8.84;6.16;;;;;;;17.35;68.91;98862.11;357671;109;1962977;-73
2021/06/12 00:18:49;;;;;;;10.95;7.03;;;;;;;17.31;69.08;98856.38;355945;111;1961921;-72
2021/06/12 00:20:05;;;;;;;8.55;6.03;;;;;;;17.36;69.32;98859.13;382344;105;2073994;-75
2021/06/12 00:21:17;;;;;;;8.94;6.22;;;;;;;17.33;69.39;98856.94;387905;106;1987949;-72
2021/06/12 00:22:43;;;;;;;8.35;5.87;;;;;;;17.19;69.36;98854.98;328435;109;2628889;-72
2021/06/12 00:23:56;;;;;;;9.46;6.77;;;;;;;17.26;69.58;98859.09;358228;104;2748035;-74
2021/06/12 00:25:02;;;;;;;11.76;7.21;;;;;;;17.13;69.67;98854.16;348118;105;1964009;-73
2021/06/12 00:26:27;;;;;;;14.30;7.85;;;;;;;17.11;69.55;98854.41;380691;105;1961936;-73
2021/06/12 00:27:33;;;;;;;11.60;7.33;;;;;;;17.08;69.53;98852.22;373651;105;1961999;-72
2021/06/12 00:28:46;;;;;;;12.09;7.92;;;;;;;17.16;69.80;98848.16;380673;106;2069978;-74
2021/06/12 00:29:51;;;;;;;10.65;7.74;;;;;;;17.04;69.85;98853.02;368391;109;1968986;-73
2021/06/12 00:30:57;;;;;;;12.60;8.36;;;;;;;17.02;69.96;98849.76;316250;110;2820034;-72
2021/06/12 00:32:09;;;;;;;11.86;6.11;;;;;;;17.12;70.19;98844.30;394730;104;1961044;-72
2021/06/12 00:33:15;;;;;;;9.63;5.62;;;;;;;17.00;70.14;98844.56;374085;106;1969005;-73
2021/06/12 00:34:28;;;;;;;9.24;4.88;;;;;;;17.08;70.38;98843.22;348571;104;2866015;-72
2021/06/12 00:35:34;;;;;;;8.72;5.20;;;;;;;16.98;70.40;98837.73;320967;106;2239055;-72
2021/06/12 00:36:57;;;;;;;8.16;5.12;;;;;;;17.02;70.39;98838.84;370833;108;1960811;-73
2021/06/12 00:38:10;;;;;;;7.34;4.81;;;;;;;17.22;70.34;98841.61;342971;103;2263009;-72
2021/06/12 00:39:16;;;;;;;9.82;4.96;;;;;;;17.17;70.28;98847.05;375943;106;1962078;-71
2021/06/12 00:40:28;;;;;;;8.56;5.01;;;;;;;17.35;70.06;98843.81;386723;106;1986036;-73
2021/06/12 00:41:33;;;;;;;7.44;4.24;;;;;;;17.30;69.95;98848.45;366690;109;1961976;-71
2021/06/12 00:42:46;;;;;;;7.74;4.75;;;;;;;17.47;69.67;98840.03;396097;104;1985903;-72
2021/06/12 00:43:52;;;;;;;8.86;4.93;;;;;;;17.43;69.68;98852.58;324285;106;2135977;-72
2021/06/12 00:45:19;;;;;;;9.44;5.11;;;;;;;17.49;69.40;98849.59;374909;107;1960762;-72
2021/06/12 00:46:31;;;;;;;9.82;5.75;;;;;;;17.62;69.05;98848.22;394648;104;1986091;-73
2021/06/12 00:47:37;;;;;;;7.64;6.07;;;;;;;17.50;69.03;98844.95;328890;105;2848926;-72
2021/06/12 00:48:51;;;;;;;9.00;5.37;;;;;;;17.58;69.05;98852.59;395355;104;1962083;-72
2021/06/12 00:49:57;;;;;;;8.52;5.44;;;;;;;17.43;69.07;98853.38;375595;105;1970081;-72
2021/06/12 00:51:02;;;;;;;12.41;6.71;;;;;;;17.40;69.12;98855.84;368095;107;2889014;-74
2021/06/12 00:52:08;;;;;;;9.29;5.99;;;;;;;17.36;69.06;98852.85;328571;107;2799959;-73
2021/06/12 00:53:42;;;;;;;12.21;6.33;;;;;;;17.42;69.32;98854.48;350245;101;2198911;-73
2021/06/12 00:54:48;;;;;;;10.73;5.88;;;;;;;17.27;69.29;98851.72;385478;103;1961884;-72
2021/06/12 00:55:53;;;;;;;10.76;7.07;;;;;;;17.23;69.31;98853.37;384843;103;1960945;-73
2021/06/12 00:57:00;;;;;;;11.07;7.31;;;;;;;17.19;69.80;98850.34;359018;103;2433964;-74
2021/06/12 00:58:13;;;;;;;9.54;6.34;;;;;;;17.26;69.58;98850.91;404055;101;1961924;-73
2021/06/12 00:59:21;;;;;;;9.32;6.27;;;;;;;17.12;69.60;98852.49;375009;104;2894978;-73
2021/06/12 01:00:35;;;;;;;9.37;6.09;;;;;;;17.19;69.85;98852.25;345098;104;2829920;-73
2021/06/12 01:01:40;;;;;;;10.72;6.86;;;;;;;17.06;69.75;98865.30;355542;105;1961988;-71
2021/06/12 01:02:53;;;;;;;13.00;7.16;;;;;;;17.15;69.98;98849.25;399736;104;1986070;-72
2021/06/12 01:03:58;;;;;;;9.81;6.58;;;;;;;17.01;69.82;98857.10;379570;105;1960877;-72
2021/06/12 01:05:07;;;;;;;12.16;7.81;;;;;;;16.99;70.03;98850.27;380243;105;1962042;-73
2021/06/12 01:06:16;;;;;;;9.18;5.84;;;;;;;16.97;70.09;98849.74;375609;106;1962941;-71
2021/06/12 01:07:28;;;;;;;7.58;5.16;;;;;;;17.05;70.28;98847.30;383899;106;1986978;-73
2021/06/12 01:08:35;;;;;;;7.88;5.05;;;;;;;16.94;70.35;98848.37;363261;109;1964989;-73
2021/06/12 01:09:52;;;;;;;8.14;5.42;;;;;;;17.10;70.57;98838.32;394113;104;1986017;-73
2021/06/12 01:10:58;;;;;;;9.42;5.28;;;;;;;17.03;70.56;98844.02;341609;105;2045977;-72
2021/06/12 01:12:54;;;;;;;8.92;4.64;;;;;;;17.09;70.46;98850.31;371321;106;1963068;-73
2021/06/12 01:14:10;;;;;;;9.10;5.52;;;;;;;17.32;70.19;98847.09;394838;104;1987064;-72
2021/06/12 01:15:16;;;;;;;7.76;4.78;;;;;;;17.28;70.04;98845.16;376555;106;1964974;-72
2021/06/12 01:16:32;;;;;;;11.13;5.52;;;;;;;17.47;69.67;98840.03;393073;104;1972982;-73
2021/06/12 01:17:44;;;;;;;8.37;5.19;;;;;;;17.41;69.51;98846.55;371557;107;1963971;-73
2021/06/12 01:19:43;;;;;;;8.69;5.62;;;;;;;17.48;69.30;98847.12;367546;107;1961996;-73
2021/06/12 01:21:05;;;;;;;9.37;6.69;;;;;;;17.63;68.86;98838.14;369386;104;2470006;-72
2021/06/12 01:22:16;;;;;;;10.39;5.87;;;;;;;17.48;68.76;98842.47;378708;105;1961964;-72
2021/06/12 01:24:04;;;;;;;12.22;7.03;;;;;;;17.52;68.82;98838.12;394123;104;1986041;-71
2021/06/12 01:25:34;;;;;;;12.05;7.22;;;;;;;17.36;68.80;98840.02;377384;107;1962079;-73
2021/06/12 01:27:03;;;;;;;9.69;6.65;;;;;;;17.29;68.91;98846.82;374617;107;1963046;-73
2021/06/12 01:28:31;;;;;;;11.92;6.69;;;;;;;17.30;69.28;98849.27;392644;104;1986996;-73
2021/06/12 01:30:13;;;;;;;9.67;6.54;;;;;;;17.13;69.16;98846.78;346347;107;2507072;-73
2021/06/12 01:31:28;;;;;;;12.43;6.59;;;;;;;17.15;69.63;98849.25;387608;106;1985968;-73
2021/06/12 01:32:37;;;;;;;11.90;7.17;;;;;;;17.01;69.58;98853.56;360139;110;1964051;-74
2021/06/12 01:34:03;;;;;;;14.21;7.08;;;;;;;16.97;69.75;98849.74;358326;111;1961902;-73
2021/06/12 01:35:44;;;;;;;12.46;7.71;;;;;;;17.03;70.43;98851.39;413023;99;1982040;-74
2021/06/12 01:36:51;;;;;;;11.00;7.42;;;;;;;16.90;70.14;98847.25;400713;101;1960765;-72
2021/06/12 01:38:05;;;;;;;10.80;6.41;;;;;;;16.98;70.42;98851.38;387275;104;2957962;-72
2021/06/12 01:39:11;;;;;;;9.61;6.35;;;;;;;16.88;70.42;98852.14;375418;107;1967952;-73
2021/06/12 01:40:48;;;;;;;12.28;5.89;;;;;;;16.91;70.55;98848.91;373702;107;1962081;-73
2021/06/12 01:41:57;;;;;;;11.48;5.99;;;;;;;16.98;70.47;98854.91;354752;111;1962085;-73
2021/06/12 01:43:04;;;;;;;9.37;5.78;;;;;;;17.06;70.34;98856.30;352088;113;1962042;-72
2021/06/12 01:44:18;;;;;;;9.65;5.35;;;;;;;17.25;70.11;98856.63;390581;104;1986965;-73
2021/06/12 01:45:25;;;;;;;9.81;5.44;;;;;;;17.19;70.06;98852.25;375351;105;1961940;-72
2021/06/12 01:46:39;;;;;;;11.37;6.03;;;;;;;17.36;69.91;98859.13;338441;104;2324855;-72
2021/06/12 01:47:46;;;;;;;7.86;5.47;;;;;;;17.30;69.87;98857.45;366479;107;1964047;-71
2021/06/12 01:49:00;;;;;;;12.28;6.46;;;;;;;17.49;69.57;98855.05;359456;108;1987004;-72
2021/06/12 01:50:08;;;;;;;9.82;6.01;;;;;;;17.43;69.46;98863.49;359598;111;1961920;-72
2021/06/12 01:51:34;;;;;;;11.26;6.27;;;;;;;17.45;69.22;98858.59;357791;113;1961944;-73
2021/06/12 01:52:47;;;;;;;8.96;6.09;;;;;;;17.52;68.97;98854.51;395218;104;1986066;-72
2021/06/12 01:53:55;;;;;;;12.75;6.88;;;;;;;17.38;68.90;98867.03;375490;107;1962035;-70
2021/06/12 01:55:01;;;;;;;11.71;6.89;;;;;;;17.33;68.92;98859.67;375124;107;1965032;-74
2021/06/12 01:56:14;;;;;;;11.91;7.24;;;;;;;17.40;69.08;98859.39;348133;103;2747048;-73
2021/06/12 01:57:20;;;;;;;12.06;7.73;;;;;;;17.25;69.05;98860.20;346107;107;1969034;-72
2021/06/12 01:58:34;;;;;;;11.50;7.46;;;;;;;17.31;69.35;98863.76;388381;104;2072010;-72
2021/06/12 01:59:40;;;;;;;10.46;6.96;;;;;;;17.16;69.32;98861.80;340597;107;2582073;-73
2021/06/12 02:00:53;;;;;;;15.99;8.30;;;;;;;17.22;69.66;98868.90;390051;104;2071982;-73
2021/06/12 02:02:01;;;;;;;11.09;7.26;;;;;;;17.08;69.54;98863.14;373854;105;1964041;-74
2021/06/12 02:03:26;;;;;;;12.04;7.71;;;;;;;17.04;69.69;98858.48;366815;107;1962040;-73
2021/06/12 02:04:39;;;;;;;12.29;8.51;;;;;;;17.10;69.98;98862.88;391587;104;1973908;-73
2021/06/12 02:05:46;;;;;;;13.12;8.63;;;;;;;16.98;69.85;98870.47;371741;108;1962002;-71
2021/06/12 02:06:55;;;;;;;13.57;8.31;;;;;;;16.97;69.83;98871.56;370187;108;1964027;-72
2021/06/12 02:08:08;;;;;;;12.19;8.48;;;;;;;17.03;70.17;98865.84;394907;104;1985973;-73
2021/06/12 02:09:16;;;;;;;12.74;7.46;;;;;;;16.88;70.28;98861.17;375974;106;1962981;-72
2021/06/12 02:10:25;;;;;;;11.82;6.74;;;;;;;16.84;70.37;98865.51;313850;109;2517130;-73
2021/06/12 02:11:40;;;;;;;13.45;6.23;;;;;;;16.96;70.58;98868.00;393365;104;1985963;-71
2021/06/12 02:12:46;;;;;;;12.70;5.49;;;;;;;16.88;70.56;98866.63;374111;106;1962052;-72
2021/06/12 02:13:52;;;;;;;11.09;6.40;;;;;;;16.94;70.60;98867.47;373994;106;1961979;-72
2021/06/12 02:15:08;;;;;;;11.49;5.93;;;;;;;17.12;70.50;98866.14;394750;104;1973049;-73
2021/06/12 02:16:15;;;;;;;13.51;5.91;;;;;;;17.08;70.38;98868.59;325730;107;2558047;-72
2021/06/12 02:17:31;;;;;;;10.07;6.27;;;;;;;17.28;70.09;98862.39;390077;104;1986958;-73
2021/06/12 02:18:46;;;;;;;10.88;5.97;;;;;;;17.35;69.84;98865.66;394514;104;1985870;-74
2021/06/12 02:19:52;;;;;;;10.99;6.27;;;;;;;17.30;69.73;98868.38;382996;105;1962069;-71
2021/06/12 02:21:06;;;;;;;10.51;6.49;;;;;;;17.48;69.31;98869.78;388568;104;2071021;-72
2021/06/12 02:22:12;;;;;;;15.02;7.55;;;;;;;17.42;69.31;98864.59;316500;109;2106965;-72
2021/06/12 02:23:28;;;;;;;12.31;7.46;;;;;;;17.52;69.23;98865.43;393296;103;1973075;-73
2021/06/12 02:24:34;;;;;;;10.04;7.21;;;;;;;17.40;69.12;98869.50;374107;106;1962977;-72
2021/06/12 02:25:58;;;;;;;13.54;7.64;;;;;;;17.36;69.08;98867.31;355029;107;1961907;-72
2021/06/12 02:27:05;;;;;;;13.73;7.71;;;;;;;17.31;69.20;98863.76;373401;107;1961992;-72
2021/06/12 02:28:13;;;;;;;10.78;8.08;;;;;;;17.27;69.42;98870.83;362879;110;1962023;-72
2021/06/12 02:29:27;;;;;;;10.34;7.22;;;;;;;17.34;69.60;98866.76;379323;108;1987081;-73
2021/06/12 02:30:37;;;;;;;10.85;8.31;;;;;;;17.21;69.73;98864.55;354374;113;1962017;-71
2021/06/12 02:32:02;;;;;;;14.77;10.57;;;;;;;17.30;69.73;98871.09;393734;104;1985982;-72
2021/06/12 02:33:17;;;;;;;16.95;11.27;;;;;;;17.28;69.83;98869.73;401118;101;1985980;-71
2021/06/12 02:34:41;;;;;;;14.24;9.82;;;;;;;17.17;69.61;98873.53;381935;105;1961000;-70
2021/06/12 02:35:54;;;;;;;17.98;11.64;;;;;;;17.28;69.85;98872.45;340494;103;2374069;-72
2021/06/12 02:37:00;;;;;;;15.26;11.88;;;;;;;17.17;69.66;98871.61;374667;107;1962024;-72
2021/06/12 02:38:24;;;;;;;16.80;12.21;;;;;;;17.16;69.57;98877.36;328159;106;2103143;-72
2021/06/12 02:39:36;;;;;;;16.01;11.08;;;;;;;17.24;69.49;98874.92;386531;106;1984999;-74
2021/06/12 02:40:42;;;;;;;16.69;11.98;;;;;;;17.08;69.43;98870.51;370352;109;1960941;-73
2021/06/12 02:41:54;;;;;;;14.97;11.53;;;;;;;17.16;69.61;98871.90;364492;104;2542797;-72
2021/06/12 02:43:00;;;;;;;16.03;11.60;;;;;;;16.99;69.78;98881.13;340440;105;2012069;-71
2021/06/12 02:44:24;;;;;;;14.46;10.35;;;;;;;16.97;69.88;98879.75;379489;105;1963034;-72
2021/06/12 02:45:37;;;;;;;12.99;10.19;;;;;;;17.03;70.59;98881.41;384456;107;1961900;-72
2021/06/12 02:46:45;;;;;;;12.84;9.42;;;;;;;16.86;70.72;98874.25;365364;109;1961932;-72
2021/06/12 02:47:54;;;;;;;11.34;8.10;;;;;;;16.85;70.87;98883.50;319638;109;2186877;-72
2021/06/12 02:49:09;;;;;;;11.77;7.33;;;;;;;16.97;71.43;98887.94;347626;104;2208008;-74
2021/06/12 02:50:19;;;;;;;13.18;7.71;;;;;;;16.90;71.17;98882.71;374929;107;1962052;-73
2021/06/12 02:51:25;;;;;;;15.07;7.96;;;;;;;16.94;71.05;98883.02;373126;107;1960909;-72
2021/06/12 02:52:33;;;;;;;12.91;7.86;;;;;;;17.02;71.04;98887.95;368837;107;1962040;-72
2021/06/12 02:53:46;;;;;;;13.00;8.17;;;;;;;17.21;70.81;98885.56;378360;108;1986897;-72
2021/06/12 02:54:53;;;;;;;14.19;9.18;;;;;;;17.16;70.56;98891.81;360152;112;1961993;-71
2021/06/12 02:56:01;;;;;;;16.92;9.02;;;;;;;17.23;70.50;98886.13;317883;112;2745036;-73
2021/06/12 02:57:18;;;;;;;14.58;9.36;;;;;;;17.46;70.17;98888.33;379947;108;1990094;-73
2021/06/12 02:58:26;;;;;;;15.32;8.09;;;;;;;17.44;70.05;98893.27;359859;111;1962068;-73
2021/06/12 02:59:43;;;;;;;17.52;7.98;;;;;;;17.66;69.68;98884.83;394807;104;1986884;-72
2021/06/12 03:00:51;;;;;;;23.96;9.97;;;;;;;17.63;69.54;98899.03;334346;107;2037070;-74
2021/06/12 03:01:58;;;;;;;22.94;9.19;;;;;;;17.72;69.11;98897.39;372275;107;1962029;-73
2021/06/12 03:03:15;;;;;;;21.72;10.18;;;;;;;17.89;68.49;98891.72;375724;104;2903016;-73
2021/06/12 03:04:22;;;;;;;19.66;9.91;;;;;;;17.78;68.44;98888.13;332493;107;2885031;-72
2021/06/12 03:05:30;;;;;;;18.06;10.36;;;;;;;17.77;68.31;98886.47;374814;107;1965015;-72
2021/06/12 03:06:46;;;;;;;16.11;9.78;;;;;;;17.84;68.23;98890.90;396330;104;1986980;-73
2021/06/12 03:07:55;;;;;;;15.45;10.21;;;;;;;17.71;68.29;98892.22;330254;106;2892006;-72
2021/06/12 03:09:11;;;;;;;14.85;9.79;;;;;;;17.76;68.47;98893.04;356887;104;2050829;-73
2021/06/12 03:10:18;;;;;;;14.84;9.76;;;;;;;17.64;68.41;98884.27;340319;107;2399011;-72
2021/06/12 03:11:44;;;;;;;16.82;10.05;;;;;;;17.64;68.34;98897.11;374449;107;1962036;-72
2021/06/12 03:13:00;;;;;;;13.68;10.19;;;;;;;17.71;68.35;98890.30;388859;104;2960000;-73
2021/06/12 03:14:06;;;;;;;16.63;9.68;;;;;;;17.59;68.25;98893.27;379393;105;1963966;-71
2021/06/12 03:15:13;;;;;;;13.38;10.18;;;;;;;17.57;68.26;98892.75;379347;105;1964020;-72
2021/06/12 03:16:21;;;;;;;16.86;10.69;;;;;;;17.54;68.38;98887.83;379775;105;1961949;-73
2021/06/12 03:17:34;;;;;;;13.81;9.16;;;;;;;17.61;68.73;98890.28;345100;106;2039988;-72
2021/06/12 03:18:43;;;;;;;13.67;9.77;;;;;;;17.51;68.67;98890.27;346444;109;1962919;-73
2021/06/12 03:19:57;;;;;;;14.59;10.21;;;;;;;17.60;68.87;98894.11;395762;104;1985904;-73
2021/06/12 03:21:04;;;;;;;15.35;9.33;;;;;;;17.49;68.84;98892.44;375698;105;1961978;-72
2021/06/12 03:22:17;;;;;;;13.94;9.14;;;;;;;17.58;69.15;98897.11;394765;104;1985927;-72
2021/06/12 03:23:25;;;;;;;12.37;9.53;;;;;;;17.49;69.07;98892.44;374910;105;1962009;-73
2021/06/12 03:24:49;;;;;;;10.77;7.93;;;;;;;17.49;69.18;98897.90;374233;105;1962992;-72
2021/06/12 03:26:01;;;;;;;12.97;8.14;;;;;;;17.61;69.37;98895.74;394462;104;1965991;-73
2021/06/12 03:27:07;;;;;;;10.34;7.82;;;;;;;17.51;69.26;98896.54;372006;107;1970078;-71
2021/06/12 03:28:29;;;;;;;11.25;8.33;;;;;;;17.64;69.40;98899.84;379274;104;1984812;-72
2021/06/12 03:29:42;;;;;;;11.92;8.21;;;;;;;17.66;69.45;98897.67;400834;102;1988784;-72
2021/06/12 03:31:07;;;;;;;13.97;8.31;;;;;;;17.56;69.28;98901.20;342277;105;2630822;-71
2021/06/12 03:32:13;;;;;;;11.22;8.34;;;;;;;17.59;69.26;98901.47;370373;107;1962926;-72
2021/06/12 03:33:25;;;;;;;12.07;9.16;;;;;;;17.72;69.32;98905.59;388076;104;2072959;-72
2021/06/12 03:34:32;;;;;;;11.05;8.13;;;;;;;17.65;69.18;98910.52;363821;107;2906081;-72
2021/06/12 03:35:46;;;;;;;13.21;8.81;;;;;;;17.77;69.30;98913.78;395046;104;1985975;-73
2021/06/12 03:36:53;;;;;;;13.27;9.30;;;;;;;17.69;69.18;98908.86;320309;107;2154123;-72
2021/06/12 03:38:18;;;;;;;17.65;9.96;;;;;;;17.71;69.18;98911.34;333071;107;2704963;-73
2021/06/12 03:39:31;;;;;;;15.08;9.98;;;;;;;17.88;69.24;98913.83;395304;103;1987985;-73
2021/06/12 03:40:39;;;;;;;16.06;10.35;;;;;;;17.80;69.13;98912.45;373858;107;1962084;-72
2021/06/12 03:41:53;;;;;;;18.72;11.25;;;;;;;17.94;69.20;98916.31;389877;104;2072145;-71
2021/06/12 03:42:58;;;;;;;15.19;10.73;;;;;;;17.87;69.01;98920.41;377171;106;1962040;-73
2021/06/12 03:44:13;;;;;;;15.27;11.74;;;;;;;17.99;69.08;98908.12;397984;103;1985894;-72
2021/06/12 03:45:18;;;;;;;13.57;10.49;;;;;;;17.92;68.93;98918.48;354414;106;1962008;-71
2021/06/12 03:46:32;;;;;;;14.84;10.41;;;;;;;18.07;68.97;98914.11;395160;104;2072026;-73
2021/06/12 03:47:38;;;;;;;16.43;9.67;;;;;;;17.99;68.79;98912.73;372610;105;1970035;-73
2021/06/12 03:49:02;;;;;;;13.38;9.49;;;;;;;18.01;68.76;98911.37;374421;107;1962075;-72
2021/06/12 03:50:17;;;;;;;13.00;9.72;;;;;;;18.15;68.85;98908.94;393613;104;1961963;-73
2021/06/12 03:51:24;;;;;;;14.83;9.48;;;;;;;18.07;68.80;98909.45;363422;110;1970051;-74
2021/06/12 03:52:31;;;;;;;12.45;9.48;;;;;;;18.09;68.78;98915.47;374345;107;1961999;-73
2021/06/12 03:53:47;;;;;;;13.30;9.59;;;;;;;18.24;68.84;98912.74;355597;104;2053961;-72
2021/06/12 03:54:53;;;;;;;12.50;8.78;;;;;;;18.10;68.70;98902.63;376622;106;1964112;-70
2021/06/12 03:56:01;;;;;;;11.99;9.09;;;;;;;18.20;68.59;98917.10;366032;108;1962901;-71
2021/06/12 03:57:14;;;;;;;14.77;9.11;;;;;;;18.36;68.55;98911.63;393419;103;1986988;-72
2021/06/12 03:58:20;;;;;;;11.88;8.53;;;;;;;18.27;68.48;98918.77;327851;105;2798983;-72
2021/06/12 03:59:32;;;;;;;19.16;9.32;;;;;;;18.41;68.52;98917.91;370265;111;1964995;-73
2021/06/12 04:00:41;;;;;;;12.78;8.74;;;;;;;18.33;68.27;98913.00;325691;112;2889879;-73
2021/06/12 04:02:06;;;;;;;14.23;8.97;;;;;;;18.36;68.16;98917.91;357337;112;1961903;-72
2021/06/12 04:03:12;;;;;;;17.69;10.04;;;;;;;18.41;68.05;98923.38;357073;112;1962904;-72
2021/06/12 04:04:20;;;;;;;13.69;9.66;;;;;;;18.46;67.90;98915.16;356398;113;1963860;-72
2021/06/12 04:05:33;;;;;;;13.88;9.13;;;;;;;18.61;67.85;98914.33;391438;104;1986986;-73
2021/06/12 04:06:40;;;;;;;12.87;9.04;;;;;;;18.53;67.82;98922.28;376317;107;1962066;-72
2021/06/12 04:07:52;;;;;;;14.55;10.11;;;;;;;18.66;67.84;98921.71;382512;106;2073045;-73
2021/06/12 04:08:58;;;;;;;13.26;9.89;;;;;;;18.58;67.85;98927.75;369165;108;1962055;-73
2021/06/12 04:10:22;;;;;;;12.78;9.29;;;;;;;18.60;67.85;98917.33;314453;111;2818984;-73
2021/06/12 04:11:34;;;;;;;11.44;8.67;;;;;;;18.74;68.06;98917.59;394393;104;1973039;-72
2021/06/12 04:12:40;;;;;;;14.20;9.82;;;;;;;18.65;67.97;98928.26;377680;105;1962045;-72
2021/06/12 04:13:46;;;;;;;16.36;10.05;;;;;;;18.67;67.90;98923.34;377940;105;1962033;-73
2021/06/12 04:14:53;;;;;;;13.53;9.23;;;;;;;18.71;67.98;98931.80;370532;105;2857977;-72
2021/06/12 04:15:58;;;;;;;14.95;9.68;;;;;;;18.73;68.00;98921.41;352534;105;1961981;-74
2021/06/12 04:17:10;;;;;;;12.25;8.96;;;;;;;18.88;68.05;98918.66;394432;104;1985939;-74
2021/06/12 04:18:16;;;;;;;12.40;8.94;;;;;;;18.81;67.95;98920.86;370224;108;1962016;-72
2021/06/12 04:19:29;;;;;;;14.24;10.42;;;;;;;18.95;68.19;98916.45;365830;104;2429964;-72
2021/06/12 04:20:38;;;;;;;13.74;9.83;;;;;;;18.88;68.07;98915.92;377855;107;1960960;-72
2021/06/12 04:22:01;;;;;;;16.18;9.94;;;;;;;18.90;68.13;98927.42;371808;107;1962037;-73
2021/06/12 04:23:15;;;;;;;20.64;10.83;;;;;;;19.06;68.29;98926.26;347108;104;2705965;-72
2021/06/12 04:24:20;;;;;;;14.76;10.67;;;;;;;18.97;68.04;98925.19;373121;107;1961987;-72
2021/06/12 04:25:32;;;;;;;13.94;10.89;;;;;;;19.11;68.45;98922.69;403780;101;1986010;-72
2021/06/12 04:26:39;;;;;;;15.74;9.71;;;;;;;19.01;68.21;98930.94;385106;104;1962048;-71
2021/06/12 04:28:03;;;;;;;15.13;9.99;;;;;;;19.01;68.21;98925.46;379109;105;1963086;-71
2021/06/12 04:29:15;;;;;;;13.59;10.00;;;;;;;19.15;68.84;98928.41;365633;104;2455861;-72
2021/06/12 04:30:23;;;;;;;11.80;9.52;;;;;;;19.04;68.65;98931.19;373304;107;1961911;-72
2021/06/12 04:31:37;;;;;;;15.18;10.37;;;;;;;19.17;68.90;98927.03;379316;109;1986011;-74
2021/06/12 04:32:42;;;;;;;15.19;9.49;;;;;;;19.06;69.12;98936.39;358425;111;1962043;-74
2021/06/12 04:33:55;;;;;;;11.75;9.26;;;;;;;19.19;69.07;98930.31;387291;106;1987076;-73
2021/06/12 04:35:01;;;;;;;16.26;10.31;;;;;;;19.07;69.08;98944.31;368536;109;1962001;-72
2021/06/12 04:36:26;;;;;;;15.81;9.11;;;;;;;19.09;69.04;98936.64;369276;109;1961992;-74
2021/06/12 04:37:32;;;;;;;12.59;9.17;;;;;;;19.16;68.92;98938.25;359764;109;2877971;-74
2021/06/12 04:38:45;;;;;;;12.16;8.66;;;;;;;19.34;68.70;98937.62;393201;104;1961990;-72
2021/06/12 04:39:50;;;;;;;14.87;9.41;;;;;;;19.27;68.52;98931.66;374937;107;1968900;-73
2021/06/12 04:41:03;;;;;;;12.37;9.09;;;;;;;19.43;68.57;98937.88;375065;104;2073027;-73
2021/06/12 04:42:09;;;;;;;13.29;9.01;;;;;;;19.37;68.47;98941.72;350192;107;1961067;-72
2021/06/12 04:43:33;;;;;;;12.53;8.89;;;;;;;18.93;68.41;98854.89;329595;111;2620994;-72
2021/06/12 04:44:45;;;;;;;11.76;9.79;;;;;;;19.59;68.42;98933.13;378419;108;2079939;-73
2021/06/12 04:45:57;;;;;;;10.42;8.06;;;;;;;19.65;68.13;98931.98;394846;104;1985928;-72
2021/06/12 04:47:21;;;;;;;11.72;8.43;;;;;;;19.59;67.77;98931.20;376508;106;1960703;-73
2021/06/12 04:48:33;;;;;;;13.36;8.93;;;;;;;19.77;67.19;98932.50;404916;101;1986006;-74
2021/06/12 04:49:39;;;;;;;12.20;8.19;;;;;;;19.71;66.95;98933.62;341510;105;2686981;-73
2021/06/12 04:51:03;;;;;;;14.14;8.38;;;;;;;19.75;66.72;98932.77;383000;103;1960875;-73
2021/06/12 04:52:09;;;;;;;9.64;6.23;;;;;;;19.81;66.34;98930.00;381206;105;1961996;-73
2021/06/12 04:53:21;;;;;;;13.49;8.06;;;;;;;19.96;65.17;98938.93;395195;104;1961927;-73
2021/06/12 04:54:27;;;;;;;12.00;7.76;;;;;;;19.89;65.18;98924.72;372677;105;1970004;-74
2021/06/12 04:55:33;;;;;;;12.69;7.53;;;;;;;19.93;65.03;98938.69;373232;107;1961024;-74
2021/06/12 04:56:38;;;;;;;18.39;9.88;;;;;;;19.96;64.76;98935.38;372428;107;1961972;-73
2021/06/12 04:57:44;;;;;;;10.62;7.99;;;;;;;19.99;64.67;98932.88;369460;107;1961986;-73
2021/06/12 04:58:56;;;;;;;11.34;8.19;;;;;;;20.14;64.36;98933.87;359471;104;2072015;-72
2021/06/12 05:00:04;;;;;;;10.32;7.12;;;;;;;20.08;64.35;98935.00;349526;105;1961916;-73
2021/06/12 05:01:17;;;;;;;11.44;8.38;;;;;;;20.24;64.13;98933.77;386711;104;2889986;-72
2021/06/12 05:02:22;;;;;;;13.74;9.37;;;;;;;20.17;64.08;98931.37;336377;105;1971095;-73
2021/06/12 05:03:46;;;;;;;12.78;7.51;;;;;;;20.22;64.01;98938.74;366325;108;1963953;-73
2021/06/12 05:05:00;;;;;;;10.80;5.89;;;;;;;20.39;63.48;98930.08;396966;104;1985956;-73
2021/06/12 05:06:06;;;;;;;11.48;7.01;;;;;;;20.32;63.10;98935.06;373429;106;1963042;-74
2021/06/12 05:07:12;;;;;;;10.27;6.89;;;;;;;20.34;63.05;98932.86;372213;107;1964094;-72
2021/06/12 05:08:17;;;;;;;12.04;8.21;;;;;;;20.38;63.13;98928.45;370029;109;1961826;-73
2021/06/12 05:09:29;;;;;;;13.59;8.43;;;;;;;20.54;62.73;98932.71;376915;108;2071926;-73
2021/06/12 05:10:35;;;;;;;10.73;8.07;;;;;;;20.46;62.75;98936.05;359567;112;1969992;-74
2021/06/12 05:11:40;;;;;;;11.71;6.86;;;;;;;20.51;62.51;98933.27;355778;113;1963868;-73
2021/06/12 05:12:46;;;;;;;12.39;7.20;;;;;;;20.55;62.18;98933.52;352666;115;1962940;-73
2021/06/12 05:13:58;;;;;;;11.45;7.28;;;;;;;20.69;61.54;98931.72;388180;106;1986997;-73
2021/06/12 05:15:07;;;;;;;9.60;6.88;;;;;;;20.62;61.57;98934.82;348932;109;2859008;-73
2021/06/12 05:16:12;;;;;;;9.52;6.92;;;;;;;20.66;61.33;98931.49;360363;110;1962010;-73
2021/06/12 05:17:27;;;;;;;7.48;5.19;;;;;;;20.78;60.39;98935.48;383020;105;1986977;-73
2021/06/12 05:18:39;;;;;;;8.60;5.07;;;;;;;20.70;60.45;98935.30;364306;110;1963020;-73
2021/06/12 05:19:46;;;;;;;6.14;4.05;;;;;;;20.83;59.83;98935.42;391097;104;1985957;-72
2021/06/12 05:20:52;;;;;;;9.51;5.16;;;;;;;20.73;59.40;98932.79;373748;107;1964978;-73
2021/06/12 05:22:04;;;;;;;8.31;4.86;;;;;;;20.84;58.82;98930.75;407229;101;1986877;-73
2021/06/12 05:23:10;;;;;;;9.33;5.68;;;;;;;20.72;59.57;98930.33;386439;103;1961854;-74
2021/06/12 05:24:35;;;;;;;7.12;5.01;;;;;;;20.75;59.39;98938.00;381355;106;1961943;-74
2021/06/12 05:25:48;;;;;;;10.33;4.90;;;;;;;20.88;58.71;98933.72;391247;104;1986984;-73
2021/06/12 05:26:53;;;;;;;8.02;5.15;;;;;;;20.73;58.88;98929.23;374946;107;1961993;-73
2021/06/12 05:28:08;;;;;;;7.81;5.08;;;;;;;20.36;58.68;98851.92;344073;104;2832025;-74